Ludowici, GA (31316)

11:53 AM EST on January 27, 2015 (GMT -0500)
Elim / Davenport Acres - Long County | Change Station
CLOSE
Current Station
Personal Weather Station
Location: Ludowici, GA
Elevation: 89 ft
Nearby Weather Stations

Elev 89 ft 31.79 °N, 81.69 °W | Updated 3 seconds ago

Partly Cloudy
Partly Cloudy
49.9 °F
Feels Like 45 °F
N
11.5
Wind Variable Wind from WNW
Gusts 11.5 mph

Today
High -- | Low -- °F
--% Chance of Precip.
Yesterday
High -- | Low -- °F
Precip. -- in
7:23 AM 5:56 PM
First Quarter, 55% visible
Pressure 29.94 in
Visibility 10.0 miles
Clouds Scattered Clouds 6000 ft
Windchill 45 °F
Dew Point 37 °F
Humidity 62%
Rainfall 0.00 in
Snow Depth Not available.
UV 4 out of 12
Pollen 4.10 out of 12
Air Quality Not available.
Flu Activity Not available.
METAR KJES 271635Z AUTO 32012G17KT 10SM SCT060 12/03 A2994 RMK AO2

More Conditions Fewer Conditions

Pressure 29.94 in
Visibility 10.0 miles
Clouds Scattered Clouds 6000 ft
Windchill 45 °F
Dew Point 37 °F
Humidity 62%
Rainfall 0.00 in
Snow Depth Not available.
UV 4 out of 12
Pollen 4.10 out of 12
Air Quality Not available.
Flu Activity Not available.
METAR KJES 271635Z AUTO 32012G17KT 10SM SCT060 12/03 A2994 RMK AO2

More Conditions Fewer Conditions

10-Day Weather Forecast

Almanac

Astronomy

Jan. 27, 2015 Rise Set
Actual Time
Civil Twilight
Nautical Twilight
Astronomical Twilight
Moon
Length of Visible Light
Length of Day
Tomorrow will be .
, % of the Moon is Illuminated

Today's Extremes

State Highs State Lows

Community

WunderPhotos

Upload Photos

1,790,725 photos uploaded!

WunderBlogs® & News

Nearby

Air Quality

  Air Quality AQ Index Pollutant
Not available.

Snow Depth

Station Depth Elevation

Earthquake Activity

City Distance Mag. Time & Date
Minimum magnitude displayed is 2.5.

Coastal Water Temperatures

Place Temperature

Nearby Weather Stations